Time;durP1;ratioP1;P1;durP2;ratioP2;P2;SDS_P1;SDS_P2;PMS_P1;PMS_P2;Temp;Humidity;BMP_temperature;BMP_pressure;BME280_temperature;BME280_humidity;BME280_pressure;Samples;Min_cycle;Max_cycle;Signal;HPM_P1;HPM_P2
2023/05/29 00:01:28;;;;;;;10.63;7.55;;;;;;;15.86;87.28;99145.00;4886900;29;20451;-94
2023/05/29 00:03:53;;;;;;;10.95;6.97;;;;;;;15.93;87.72;99148.06;4887003;29;20024;-92
2023/05/29 00:06:19;;;;;;;12.40;7.53;;;;;;;15.84;87.83;99155.38;4887080;29;20088;-93
2023/05/29 00:08:45;;;;;;;11.65;7.85;;;;;;;15.67;89.09;99150.59;4886759;29;20046;-94
2023/05/29 00:11:11;;;;;;;13.27;7.47;;;;;;;15.62;89.37;99152.59;4886761;29;20043;-93
2023/05/29 00:13:36;;;;;;;12.57;7.68;;;;;;;15.59;89.58;99161.38;4886508;29;20020;-92
2023/05/29 00:16:02;;;;;;;10.05;7.13;;;;;;;15.53;90.02;99157.97;4886165;29;20035;-93
2023/05/29 00:18:27;;;;;;;13.68;8.48;;;;;;;15.60;90.11;99168.41;4886510;29;20051;-93
2023/05/29 00:20:53;;;;;;;10.45;7.47;;;;;;;15.63;90.37;99178.66;4886852;29;20084;-93
2023/05/29 00:23:19;;;;;;;12.90;8.27;;;;;;;15.52;90.31;99159.88;4886596;29;20031;-93
2023/05/29 00:25:44;;;;;;;12.45;7.90;;;;;;;15.39;90.32;99147.16;4886372;29;20032;-93
2023/05/29 00:28:11;;;;;;;14.50;8.35;;;;;;;15.44;90.73;99155.19;4902214;29;20028;-93
2023/05/29 00:30:37;;;;;;;16.38;9.65;;;;;;;15.53;90.73;99175.03;4901693;29;20028;-93
2023/05/29 00:33:02;;;;;;;15.50;8.25;;;;;;;15.47;90.93;99170.03;4886822;29;20031;-93
2023/05/29 00:35:28;;;;;;;13.77;7.93;;;;;;;15.39;90.80;99163.44;4886113;29;20120;-93
2023/05/29 00:37:55;;;;;;;12.40;7.88;;;;;;;15.46;89.98;99152.97;4887221;29;20032;-92
2023/05/29 00:40:20;;;;;;;11.82;7.93;;;;;;;15.67;89.94;99188.59;4902096;29;20036;-92
2023/05/29 00:42:46;;;;;;;10.98;8.05;;;;;;;15.50;90.09;99145.81;4887038;29;20123;-92
2023/05/29 00:45:13;;;;;;;14.20;7.60;;;;;;;15.57;90.19;99164.38;4886563;29;20035;-91
2023/05/29 00:47:39;;;;;;;11.48;6.75;;;;;;;15.52;90.31;99159.06;4886764;29;20087;-92
2023/05/29 00:50:05;;;;;;;9.57;7.45;;;;;;;15.55;90.54;99169.31;4886333;29;20032;-93
2023/05/29 00:52:31;;;;;;;9.90;6.32;;;;;;;15.70;90.42;99195.31;4885883;29;20451;-92
2023/05/29 00:54:56;;;;;;;14.05;7.88;;;;;;;15.60;89.67;99161.03;4886221;29;20029;-91
2023/05/29 00:57:22;;;;;;;11.65;7.32;;;;;;;15.76;88.92;99180.53;4886690;29;20538;-92
2023/05/29 00:59:48;;;;;;;11.57;7.35;;;;;;;15.72;88.97;99160.53;4887401;29;20028;-94
2023/05/29 01:02:14;;;;;;;14.00;7.65;;;;;;;15.82;88.82;99179.31;4918667;29;20024;-92
2023/05/29 01:04:40;;;;;;;13.68;7.43;;;;;;;15.74;89.47;99174.59;4886243;29;20191;-92
2023/05/29 01:07:06;;;;;;;11.52;7.32;;;;;;;15.74;89.02;99156.41;4887103;29;20456;-91
2023/05/29 01:09:34;;;;;;;10.73;7.43;;;;;;;15.89;88.90;99165.28;4886350;29;20475;-92
2023/05/29 01:12:12;;;;;;;9.57;6.95;;;;;;;15.86;89.92;99190.34;4903393;29;20035;-92
2023/05/29 01:15:12;;;;;;;11.07;6.97;;;;;;;15.66;89.43;99154.38;4918122;29;20502;-92
2023/05/29 01:18:01;;;;;;;13.32;7.30;;;;;;;15.81;89.55;99176.88;4900798;29;20043;-92
2023/05/29 01:20:44;;;;;;;11.13;7.93;;;;;;;15.76;89.63;99172.38;4897375;29;20499;-92
2023/05/29 01:23:36;;;;;;;13.23;7.85;;;;;;;15.75;89.71;99174.31;4902143;29;20032;-92
2023/05/29 01:26:43;;;;;;;10.98;7.35;;;;;;;15.83;89.19;99180.91;4902022;29;20032;-93
2023/05/29 01:29:08;;;;;;;11.88;6.78;;;;;;;15.76;88.79;99145.25;4895795;29;20068;-93
2023/05/29 01:31:35;;;;;;;11.93;7.07;;;;;;;15.69;88.68;99153.00;4886210;29;20458;-93
2023/05/29 01:34:01;;;;;;;13.63;7.47;;;;;;;15.76;88.55;99156.09;4902390;29;20445;-93
2023/05/29 01:36:27;;;;;;;9.73;6.63;;;;;;;15.75;87.86;99149.09;4886590;29;20032;-93
2023/05/29 01:38:53;;;;;;;9.75;7.43;;;;;;;15.75;88.72;99151.78;4884951;29;20028;-93
2023/05/29 01:41:19;;;;;;;8.98;6.50;;;;;;;15.75;89.13;99159.94;4886278;29;20035;-94
2023/05/29 01:43:45;;;;;;;10.00;5.93;;;;;;;15.82;88.34;99152.16;4885766;29;20028;-93
2023/05/29 01:46:12;;;;;;;8.15;6.50;;;;;;;15.85;88.82;99156.16;4901576;29;20048;-92
2023/05/29 01:48:38;;;;;;;11.85;6.90;;;;;;;15.73;88.96;99145.88;4885881;29;20514;-92
2023/05/29 01:51:03;;;;;;;10.30;7.05;;;;;;;15.77;88.82;99149.53;4887194;29;20032;-93
2023/05/29 01:53:29;;;;;;;9.30;6.53;;;;;;;15.83;88.34;99151.03;4889954;29;20145;-93
2023/05/29 01:55:54;;;;;;;8.80;5.85;;;;;;;15.83;87.40;99129.31;4889427;29;20059;-93
2023/05/29 01:58:20;;;;;;;9.05;6.53;;;;;;;16.02;87.55;99150.03;4904221;29;20056;-93
2023/05/29 02:00:46;;;;;;;10.45;6.93;;;;;;;15.99;86.54;99137.09;4889485;29;20036;-93
2023/05/29 02:03:11;;;;;;;10.82;7.40;;;;;;;15.96;86.85;99150.19;4889770;29;20463;-92
2023/05/29 02:05:37;;;;;;;11.90;8.30;;;;;;;15.88;86.73;99133.84;4889439;29;20036;-93
2023/05/29 02:08:02;;;;;;;11.68;7.75;;;;;;;15.84;87.38;99143.72;4888779;29;20039;-93
2023/05/29 02:10:29;;;;;;;12.57;8.20;;;;;;;15.80;87.45;99142.72;4890360;29;20036;-93
2023/05/29 02:12:55;;;;;;;12.18;8.15;;;;;;;15.98;87.70;99159.91;4905258;29;20024;-93
2023/05/29 02:15:20;;;;;;;10.27;7.78;;;;;;;15.90;87.09;99137.84;4889318;29;20060;-94
2023/05/29 02:17:46;;;;;;;10.63;7.53;;;;;;;16.02;87.21;99148.16;4888094;29;20032;-93
2023/05/29 02:20:11;;;;;;;10.50;7.25;;;;;;;15.93;87.01;99147.28;4905090;29;20032;-94
2023/05/29 02:22:37;;;;;;;11.55;7.95;;;;;;;16.08;87.09;99160.50;4889199;29;20020;-93
2023/05/29 02:25:03;;;;;;;13.35;8.05;;;;;;;16.10;86.86;99163.69;4904720;29;20028;-94
2023/05/29 02:27:28;;;;;;;10.75;7.22;;;;;;;16.15;85.75;99162.75;4919456;29;20490;-92
2023/05/29 02:29:54;;;;;;;12.93;7.68;;;;;;;16.25;85.45;99167.09;4888909;29;20499;-93
2023/05/29 02:32:19;;;;;;;11.63;7.78;;;;;;;16.16;85.67;99159.75;4889119;29;20482;-93
2023/05/29 02:34:45;;;;;;;13.25;8.02;;;;;;;16.12;86.14;99150.59;4905075;29;20024;-93
2023/05/29 02:37:12;;;;;;;13.02;8.13;;;;;;;16.26;85.87;99161.38;4888119;29;20039;-92
2023/05/29 02:39:37;;;;;;;11.45;7.70;;;;;;;16.23;85.95;99153.84;4889227;29;20031;-92
2023/05/29 02:42:03;;;;;;;10.75;7.43;;;;;;;16.39;85.77;99178.69;4889103;29;20024;-92
2023/05/29 02:44:29;;;;;;;14.45;8.35;;;;;;;16.36;85.57;99177.41;4904571;29;20009;-93
2023/05/29 02:46:54;;;;;;;11.43;7.75;;;;;;;16.51;84.48;99189.00;4887884;29;20515;-93
2023/05/29 02:49:20;;;;;;;15.77;8.48;;;;;;;16.44;84.77;99172.34;4888832;29;20031;-92
2023/05/29 02:51:45;;;;;;;10.63;7.75;;;;;;;16.57;84.55;99202.13;4904566;29;20570;-92
2023/05/29 02:54:12;;;;;;;13.35;7.63;;;;;;;16.41;84.39;99162.88;4904421;29;20028;-93
2023/05/29 02:56:37;;;;;;;12.73;7.93;;;;;;;16.42;84.44;99169.13;4903193;29;20058;-92
2023/05/29 02:59:03;;;;;;;15.35;8.25;;;;;;;16.42;84.14;99174.56;4904983;29;20070;-92
2023/05/29 03:01:29;;;;;;;12.32;8.00;;;;;;;16.33;84.18;99161.75;4905085;29;20032;-92
2023/05/29 03:03:56;;;;;;;11.98;7.28;;;;;;;16.40;84.30;99168.66;4888457;29;20040;-94
2023/05/29 03:06:21;;;;;;;11.57;8.10;;;;;;;16.36;84.70;99174.69;4888768;29;20122;-91
2023/05/29 03:08:47;;;;;;;11.90;7.90;;;;;;;16.34;84.56;99160.63;4888215;29;20396;-92
2023/05/29 03:11:14;;;;;;;11.70;8.30;;;;;;;16.15;85.44;99171.69;4904214;29;20088;-92
2023/05/29 03:13:40;;;;;;;12.00;8.73;;;;;;;16.17;85.14;99157.81;4888970;29;20016;-93
2023/05/29 03:16:08;;;;;;;11.90;8.93;;;;;;;16.21;85.33;99166.94;4889033;29;20491;-94
2023/05/29 03:18:33;;;;;;;13.45;9.25;;;;;;;16.32;85.92;99191.94;4889156;29;20095;-94
2023/05/29 03:21:00;;;;;;;14.88;8.07;;;;;;;16.22;85.43;99176.69;4904042;29;20463;-94
2023/05/29 03:23:25;;;;;;;15.93;8.95;;;;;;;16.22;85.29;99173.19;4888570;29;20028;-94
2023/05/29 03:25:51;;;;;;;12.95;8.50;;;;;;;16.08;84.91;99144.19;4888346;29;20032;-93
2023/05/29 03:28:16;;;;;;;10.85;8.48;;;;;;;16.09;85.27;99144.97;4888022;29;20061;-94
2023/05/29 03:30:42;;;;;;;13.45;8.98;;;;;;;16.25;85.50;99170.66;4889123;29;20031;-92
2023/05/29 03:33:08;;;;;;;13.45;9.50;;;;;;;16.17;86.04;99164.03;4904616;29;20016;-92
2023/05/29 03:35:33;;;;;;;11.98;8.93;;;;;;;16.18;86.44;99167.56;4919698;29;20032;-93
2023/05/29 03:37:59;;;;;;;15.50;9.88;;;;;;;16.07;86.66;99152.63;4888170;29;20020;-94
2023/05/29 03:40:25;;;;;;;11.80;8.73;;;;;;;16.09;87.43;99164.00;4888671;29;20032;-93
2023/05/29 03:42:50;;;;;;;14.77;9.43;;;;;;;16.16;88.26;99196.94;4889130;29;20115;-92
2023/05/29 03:45:16;;;;;;;13.95;9.85;;;;;;;15.99;88.65;99178.63;4888694;29;20458;-94
2023/05/29 03:47:41;;;;;;;13.50;10.07;;;;;;;15.76;89.94;99167.75;4892040;29;20031;-93
2023/05/29 03:50:08;;;;;;;16.70;10.20;;;;;;;15.86;89.97;99172.16;4875078;29;20031;-92
2023/05/29 03:52:33;;;;;;;16.10;10.55;;;;;;;16.04;89.22;99188.56;4889581;29;20114;-93
2023/05/29 03:54:59;;;;;;;14.82;10.15;;;;;;;16.01;88.23;99164.75;4872690;29;20067;-93
2023/05/29 03:57:26;;;;;;;20.40;10.25;;;;;;;16.17;88.29;99184.97;4889405;29;20056;-93
2023/05/29 03:59:51;;;;;;;17.33;10.15;;;;;;;16.17;88.57;99191.22;4873735;29;20039;-92
2023/05/29 04:22:56;;;;;;;21.50;14.65;;;;;;;16.39;86.34;99189.56;4891799;29;20119;-96
2023/05/29 04:25:24;;;;;;;15.98;11.57;;;;;;;16.55;85.72;99195.41;4888896;29;20449;-96
2023/05/29 04:27:50;;;;;;;17.27;9.93;;;;;;;16.56;84.83;99194.31;4854366;29;20028;-96
2023/05/29 04:30:16;;;;;;;14.10;9.82;;;;;;;16.63;84.27;99191.13;4855231;29;20035;-96
2023/05/29 04:32:42;;;;;;;16.20;11.07;;;;;;;16.52;85.39;99193.34;4852285;29;20037;-96
2023/05/29 04:35:09;;;;;;;16.35;10.80;;;;;;;16.48;86.25;99192.34;4865939;29;20021;-93
2023/05/29 04:37:38;;;;;;;14.95;10.20;;;;;;;16.49;85.31;99200.16;4866897;29;20117;-94
2023/05/29 04:40:09;;;;;;;17.77;10.98;;;;;;;16.55;84.90;99207.06;4868836;29;20025;-95
2023/05/29 04:42:37;;;;;;;15.03;9.90;;;;;;;16.67;83.82;99203.00;4852231;29;20128;-95
2023/05/29 04:45:06;;;;;;;15.43;10.07;;;;;;;16.61;83.18;99194.16;4860908;29;20535;-95
2023/05/29 04:47:47;;;;;;;15.77;9.70;;;;;;;16.50;83.15;99187.41;4856181;29;20065;-95
2023/05/29 04:50:35;;;;;;;14.47;9.07;;;;;;;16.59;82.88;99207.25;4857919;29;20037;-94
2023/05/29 04:53:00;;;;;;;17.20;11.77;;;;;;;16.62;83.24;99214.81;4886838;29;20048;-96
2023/05/29 04:55:27;;;;;;;14.50;10.23;;;;;;;16.38;84.54;99203.50;4888935;29;20543;-96
2023/05/29 04:57:53;;;;;;;17.10;9.63;;;;;;;16.50;84.63;99223.53;4874371;29;20039;-95
2023/05/29 05:00:20;;;;;;;14.40;9.95;;;;;;;16.39;83.71;99214.03;4888913;29;20029;-95
2023/05/29 05:02:46;;;;;;;22.52;11.57;;;;;;;16.43;83.88;99217.72;4890883;29;20040;-95
2023/05/29 05:05:12;;;;;;;20.08;10.30;;;;;;;16.45;84.60;99237.25;4891102;29;20124;-96
2023/05/29 05:07:40;;;;;;;15.57;10.93;;;;;;;16.31;85.29;99215.59;4873740;29;20048;-96
2023/05/29 05:10:12;;;;;;;20.23;15.63;;;;;;;16.28;85.53;99212.69;4873463;29;20071;-95
2023/05/29 05:12:38;;;;;;;16.80;12.65;;;;;;;16.50;85.60;99241.75;4886210;29;20032;-93
2023/05/29 05:15:04;;;;;;;16.88;11.77;;;;;;;16.48;84.61;99219.53;4869447;29;20080;-92
2023/05/29 05:17:29;;;;;;;18.75;11.68;;;;;;;16.45;84.91;99228.28;4883848;29;20043;-91
2023/05/29 05:19:55;;;;;;;21.38;12.25;;;;;;;16.39;84.57;99194.22;4869449;29;20025;-93
2023/05/29 05:22:21;;;;;;;22.20;13.13;;;;;;;16.57;84.34;99228.53;4882822;29;20085;-92
2023/05/29 05:24:47;;;;;;;16.23;11.90;;;;;;;16.63;84.57;99224.56;4883377;29;20052;-95
2023/05/29 05:27:12;;;;;;;15.88;11.02;;;;;;;16.62;84.17;99209.38;4871909;29;20057;-93
2023/05/29 05:29:38;;;;;;;18.83;12.30;;;;;;;16.89;84.17;99235.59;4888546;29;20099;-94
2023/05/29 05:32:06;;;;;;;17.58;11.00;;;;;;;16.92;82.84;99242.31;4891108;29;20096;-93
2023/05/29 05:37:46;;;;;;;18.70;11.85;;;;;;;17.01;83.35;99248.59;4909926;29;20048;-95
2023/05/29 05:40:11;;;;;;;17.95;11.30;;;;;;;16.87;83.47;99237.00;4909545;29;20074;-95
2023/05/29 05:42:55;;;;;;;17.80;11.73;;;;;;;16.81;82.83;99222.75;4906795;29;20109;-95
2023/05/29 05:45:33;;;;;;;18.98;12.20;;;;;;;16.91;82.78;99219.75;4893830;29;20043;-95
2023/05/29 05:47:58;;;;;;;19.08;13.40;;;;;;;16.92;82.47;99212.41;4906908;29;20028;-93
2023/05/29 05:50:25;;;;;;;18.92;12.75;;;;;;;16.98;82.64;99229.38;4896571;29;20117;-96
2023/05/29 05:52:52;;;;;;;15.98;11.63;;;;;;;17.15;83.12;99246.56;4897870;29;20494;-94
2023/05/29 05:55:21;;;;;;;16.73;10.10;;;;;;;17.11;81.93;99236.63;4907778;29;20388;-96
2023/05/29 05:57:50;;;;;;;16.60;11.43;;;;;;;17.08;83.00;99235.34;4861053;29;20028;-96
2023/05/29 06:00:18;;;;;;;15.30;11.05;;;;;;;17.00;83.93;99248.91;4862041;29;20087;-94
2023/05/29 06:02:44;;;;;;;23.05;12.23;;;;;;;16.98;83.86;99267.47;4885175;29;20038;-95
2023/05/29 06:05:11;;;;;;;18.25;11.70;;;;;;;16.80;83.98;99244.78;4891405;29;20068;-92
2023/05/29 06:07:40;;;;;;;19.02;12.07;;;;;;;16.90;84.21;99242.63;4904645;29;20036;-94
2023/05/29 06:10:11;;;;;;;18.17;11.25;;;;;;;16.98;82.53;99238.34;4887488;29;20025;-95
2023/05/29 06:12:37;;;;;;;18.98;11.05;;;;;;;17.03;82.55;99242.84;4886324;29;20487;-92
2023/05/29 06:15:04;;;;;;;21.48;11.88;;;;;;;16.96;83.22;99225.06;4887056;29;20036;-94
2023/05/29 06:17:29;;;;;;;13.15;10.80;;;;;;;17.05;83.09;99229.72;4915219;29;20032;-93
2023/05/29 06:19:55;;;;;;;17.02;11.45;;;;;;;17.03;83.76;99240.91;4890001;29;20083;-93
2023/05/29 06:22:30;;;;;;;13.88;10.32;;;;;;;16.93;83.42;99224.88;4909942;29;20028;-94
2023/05/29 06:24:56;;;;;;;14.48;10.13;;;;;;;17.11;82.15;99242.84;4885793;29;20088;-94
2023/05/29 06:27:25;;;;;;;17.00;10.75;;;;;;;17.02;83.05;99243.97;4892272;29;20020;-93
2023/05/29 06:29:54;;;;;;;19.48;12.98;;;;;;;17.24;82.92;99262.91;4883076;29;20028;-95
2023/05/29 06:32:20;;;;;;;15.57;10.98;;;;;;;17.14;82.16;99225.91;4892360;29;20024;-94
2023/05/29 06:34:46;;;;;;;14.80;10.65;;;;;;;17.24;81.56;99238.41;4899682;29;20045;-94
2023/05/29 06:37:13;;;;;;;13.20;9.25;;;;;;;17.36;81.55;99243.25;4907313;29;20071;-96
2023/05/29 06:39:47;;;;;;;15.82;9.98;;;;;;;17.31;82.39;99238.75;4911512;29;20051;-95
2023/05/29 06:42:12;;;;;;;19.05;12.70;;;;;;;17.29;82.32;99221.94;4891763;29;20039;-91
2023/05/29 06:44:38;;;;;;;22.35;16.75;;;;;;;17.46;84.16;99261.22;4909557;29;20384;-90
2023/05/29 06:47:05;;;;;;;14.18;9.50;;;;;;;17.27;83.57;99237.00;4904227;29;20059;-92
2023/05/29 06:49:31;;;;;;;11.30;7.88;;;;;;;17.45;81.58;99254.97;4882056;29;20429;-90
2023/05/29 06:51:56;;;;;;;11.02;8.40;;;;;;;17.38;82.16;99230.94;4883261;29;20024;-90
2023/05/29 06:54:42;;;;;;;13.95;8.60;;;;;;;17.52;82.49;99246.34;4909297;29;20060;-95
2023/05/29 06:57:07;;;;;;;11.68;6.78;;;;;;;17.45;81.25;99233.19;4882051;29;20103;-91
2023/05/29 06:59:33;;;;;;;8.73;6.05;;;;;;;17.48;81.15;99242.66;4883145;29;20032;-90
2023/05/29 07:01:58;;;;;;;10.40;7.28;;;;;;;17.29;82.08;99235.56;4917431;29;20032;-93
2023/05/29 07:04:24;;;;;;;14.27;7.47;;;;;;;17.22;82.61;99221.59;4902470;29;20031;-93
2023/05/29 07:06:51;;;;;;;62.95;34.83;;;;;;;17.36;82.14;99251.41;4890072;29;20024;-95
2023/05/29 07:09:16;;;;;;;9.73;7.68;;;;;;;17.15;82.21;99224.78;4855683;29;20467;-95
2023/05/29 07:11:44;;;;;;;11.27;7.70;;;;;;;17.21;82.96;99238.25;4895697;29;20019;-93
2023/05/29 07:14:10;;;;;;;10.38;7.50;;;;;;;17.21;83.14;99249.94;4889352;29;20016;-91
2023/05/29 07:16:55;;;;;;;11.45;7.25;;;;;;;17.26;83.59;99263.38;4887748;29;20100;-93
2023/05/29 07:19:21;;;;;;;11.95;7.88;;;;;;;17.26;83.82;99265.31;4899913;29;20418;-92
2023/05/29 07:21:47;;;;;;;12.55;8.40;;;;;;;17.17;83.95;99244.31;4881478;29;20035;-91
2023/05/29 07:24:12;;;;;;;14.93;9.68;;;;;;;17.07;85.40;99251.97;4903209;29;20111;-94
2023/05/29 07:26:40;;;;;;;11.02;7.63;;;;;;;17.03;84.78;99240.13;4904523;29;20058;-95
2023/05/29 07:29:09;;;;;;;10.48;6.70;;;;;;;17.00;84.49;99249.72;4887385;29;20119;-93
2023/05/29 07:31:47;;;;;;;;;;;;;;;;;;;;;
2023/05/29 07:34:15;;;;;;;10.68;8.05;;;;;;;16.91;87.14;99260.56;4904970;29;20038;-90
2023/05/29 07:37:18;;;;;;;24.45;17.17;;;;;;;16.84;87.50;99241.16;4893230;29;20073;-93
2023/05/29 07:39:44;;;;;;;13.32;9.70;;;;;;;16.93;87.52;99255.63;4865530;29;20053;-92
2023/05/29 07:42:28;;;;;;;16.30;10.07;;;;;;;17.06;87.59;99283.03;4853158;29;20483;-93
2023/05/29 07:45:22;;;;;;;14.30;10.68;;;;;;;17.07;87.15;99271.00;4871385;29;20503;-93
2023/05/29 07:47:47;;;;;;;17.10;9.30;;;;;;;17.01;86.69;99272.25;4867107;29;20058;-94
2023/05/29 07:50:32;;;;;;;;;;;;;;;;;;;;;
2023/05/29 07:53:17;;;;;;;14.38;9.98;;;;;;;17.03;84.42;99275.47;4864685;29;20098;-94
2023/05/29 07:55:53;;;;;;;13.23;7.43;;;;;;;16.96;84.36;99282.16;4859346;29;20021;-94
2023/05/29 07:58:24;;;;;;;13.15;7.70;;;;;;;16.86;84.29;99266.13;4873783;29;20028;-96
2023/05/29 08:00:52;;;;;;;15.80;11.20;;;;;;;16.83;85.37;99263.22;4883852;29;20100;-91
2023/05/29 08:03:21;;;;;;;10.75;8.32;;;;;;;16.69;85.05;99253.22;4852647;29;20028;-92
2023/05/29 08:05:58;;;;;;;;;;;;;;;;;;;;;
2023/05/29 08:08:24;;;;;;;13.13;9.05;;;;;;;16.92;85.27;99274.94;4887289;29;20194;-93
2023/05/29 08:10:50;;;;;;;16.83;9.00;;;;;;;17.07;84.72;99279.97;4887952;29;20111;-95
2023/05/29 08:13:15;;;;;;;25.10;15.63;;;;;;;17.03;84.85;99265.38;4868193;29;20025;-92
2023/05/29 08:15:50;;;;;;;12.40;9.32;;;;;;;17.32;82.73;99296.72;4862961;29;20021;-95
2023/05/29 08:18:16;;;;;;;11.18;8.13;;;;;;;17.46;82.41;99296.59;4871204;29;20047;-94
2023/05/29 08:20:47;;;;;;;10.82;7.85;;;;;;;17.36;82.09;99271.25;4887630;29;20032;-96
2023/05/29 08:23:14;;;;;;;11.27;8.38;;;;;;;17.39;82.19;99278.03;4888103;29;20033;-94
2023/05/29 08:25:40;;;;;;;13.85;9.10;;;;;;;17.33;81.29;99271.13;4886623;29;20116;-95
2023/05/29 08:28:05;;;;;;;18.20;9.20;;;;;;;17.33;82.26;99273.84;4887195;29;20056;-94
2023/05/29 08:30:32;;;;;;;10.95;8.30;;;;;;;17.37;80.89;99288.41;4903904;29;20039;-94
2023/05/29 08:33:26;;;;;;;12.52;8.52;;;;;;;17.48;81.84;99299.81;4888030;29;20028;-95
2023/05/29 08:35:52;;;;;;;11.75;8.10;;;;;;;17.42;80.80;99279.31;4910299;29;20067;-94
2023/05/29 08:38:17;;;;;;;15.75;9.60;;;;;;;17.43;81.26;99279.00;4908317;29;20483;-94
2023/05/29 08:40:43;;;;;;;13.65;9.38;;;;;;;17.63;81.22;99298.56;4890333;29;20024;-96
2023/05/29 08:43:19;;;;;;;13.45;8.82;;;;;;;17.58;80.49;99270.38;4891244;29;20502;-96
2023/05/29 08:45:48;;;;;;;12.80;9.15;;;;;;;17.64;81.01;99281.09;4890623;29;20040;-95
2023/05/29 08:48:13;;;;;;;18.90;12.30;;;;;;;17.60;80.68;99271.97;4888537;29;20025;-94
2023/05/29 08:50:48;;;;;;;12.60;8.57;;;;;;;17.93;80.49;99286.78;4893405;29;20513;-95
2023/05/29 08:53:20;;;;;;;12.75;8.88;;;;;;;18.05;80.35;99269.00;4906494;29;20443;-93
2023/05/29 08:55:47;;;;;;;12.60;8.65;;;;;;;18.04;78.99;99262.75;4899048;29;20337;-92
2023/05/29 08:58:13;;;;;;;11.02;8.93;;;;;;;18.26;77.84;99272.69;4896065;29;20123;-93
2023/05/29 09:00:40;;;;;;;13.40;8.85;;;;;;;18.40;78.38;99267.03;4898259;29;20029;-92
2023/05/29 09:03:06;;;;;;;10.68;8.82;;;;;;;18.56;76.36;99278.25;4893513;29;20039;-94
2023/05/29 09:05:32;;;;;;;15.85;9.93;;;;;;;18.52;76.24;99258.22;4890106;29;20024;-92
2023/05/29 09:07:58;;;;;;;16.58;9.13;;;;;;;18.77;75.81;99281.88;4892509;29;20118;-95
2023/05/29 09:10:32;;;;;;;12.27;8.95;;;;;;;18.73;76.31;99259.09;4886257;29;20035;-95
2023/05/29 09:16:24;;;;;;;11.85;8.38;;;;;;;19.42;73.82;99254.50;4922183;29;20126;-95
2023/05/29 09:18:51;;;;;;;12.35;8.23;;;;;;;19.84;72.80;99262.78;4908356;29;20028;-95
2023/05/29 09:21:27;;;;;;;13.60;8.88;;;;;;;19.96;72.43;99262.03;4899296;29;20414;-96
2023/05/29 09:23:54;;;;;;;9.40;7.00;;;;;;;19.90;69.65;99249.69;4896870;29;20107;-94
2023/05/29 09:26:21;;;;;;;11.23;7.25;;;;;;;19.88;70.17;99244.59;4927285;29;20164;-93
2023/05/29 09:28:47;;;;;;;14.48;9.88;;;;;;;19.71;70.89;99247.44;4912718;29;20160;-91
2023/05/29 09:31:15;;;;;;;10.73;8.30;;;;;;;19.74;71.22;99261.22;4895026;29;20028;-92
2023/05/29 09:33:48;;;;;;;11.15;7.95;;;;;;;19.21;72.46;99235.34;4910886;29;20040;-93
2023/05/29 09:36:22;;;;;;;9.65;8.23;;;;;;;19.29;73.82;99242.69;4911151;29;20135;-93
2023/05/29 09:38:48;;;;;;;9.60;7.82;;;;;;;19.26;73.17;99243.34;4895589;29;20031;-95
2023/05/29 09:41:15;;;;;;;12.90;9.00;;;;;;;19.30;72.23;99257.94;4905143;29;20020;-92
2023/05/29 09:43:40;;;;;;;14.27;9.82;;;;;;;19.14;73.62;99249.50;4905830;29;20020;-94
2023/05/29 09:46:08;;;;;;;16.05;7.90;;;;;;;19.02;74.19;99241.22;4890840;29;20403;-94
2023/05/29 09:48:34;;;;;;;10.18;7.85;;;;;;;19.09;74.89;99248.88;4906691;29;20075;-95
2023/05/29 09:51:05;;;;;;;12.27;10.07;;;;;;;18.83;75.06;99232.66;4912634;29;20051;-94
2023/05/29 09:53:31;;;;;;;;;;;;;;;19.00;74.10;99253.59;4912772;29;20402;-95
2023/05/29 09:56:17;;;;;;;15.63;9.80;;;;;;;18.95;74.86;99230.81;4881552;29;19922;-96
2023/05/29 09:58:47;;;;;;;15.10;10.13;;;;;;;19.10;73.73;99245.84;4901063;29;20483;-95
2023/05/29 10:01:17;;;;;;;14.27;9.23;;;;;;;19.12;73.76;99242.78;4895110;29;20128;-96
2023/05/29 10:03:44;;;;;;;14.68;10.40;;;;;;;19.08;74.19;99231.72;4892693;29;20038;-96
2023/05/29 10:06:18;;;;;;;15.60;9.27;;;;;;;19.07;73.80;99221.13;4894353;29;20064;-95
2023/05/29 10:08:50;;;;;;;11.25;8.57;;;;;;;19.36;73.66;99244.88;4893281;29;20036;-95
2023/05/29 10:11:19;;;;;;;9.98;8.07;;;;;;;19.28;73.21;99223.91;4905021;29;20099;-95
2023/05/29 10:13:48;;;;;;;10.32;7.95;;;;;;;19.36;73.92;99242.16;4891819;29;20036;-94
2023/05/29 10:16:17;;;;;;;10.70;7.38;;;;;;;19.29;73.01;99215.38;4891943;29;20027;-95
2023/05/29 10:18:49;;;;;;;17.05;8.23;;;;;;;19.23;73.51;99213.19;4890176;29;20016;-95
2023/05/29 10:21:15;;;;;;;12.95;8.68;;;;;;;19.09;75.42;99214.22;4905754;29;20418;-95
2023/05/29 10:23:42;;;;;;;14.75;10.02;;;;;;;19.14;74.15;99215.97;4892087;29;20123;-95
2023/05/29 10:26:14;;;;;;;11.60;8.77;;;;;;;19.15;75.63;99232.03;4891109;29;20028;-92
2023/05/29 10:28:41;;;;;;;;;;;;;;;19.28;76.43;99245.75;4912362;29;20067;-93
2023/05/29 10:31:09;;;;;;;12.55;7.53;;;;;;;19.38;74.92;99226.25;4908923;29;19950;-93
2023/05/29 10:33:53;;;;;;;9.82;8.02;;;;;;;19.51;73.59;99238.06;4890843;29;20538;-94
2023/05/29 10:36:21;;;;;;;9.27;7.32;;;;;;;19.60;72.98;99230.63;4904080;29;20056;-94
2023/05/29 10:38:47;;;;;;;15.73;10.50;;;;;;;19.43;73.25;99204.22;4877916;29;20040;-94
2023/05/29 10:41:28;;;;;;;11.82;7.97;;;;;;;19.64;72.90;99220.63;4887544;29;20025;-95
2023/05/29 10:43:57;;;;;;;19.55;11.77;;;;;;;19.54;74.28;99197.22;4895271;29;20463;-94
2023/05/29 10:46:42;;;;;;;12.60;10.20;;;;;;;19.82;73.52;99224.06;4890630;29;20020;-95
2023/05/29 10:49:17;;;;;;;11.77;8.02;;;;;;;19.73;74.01;99217.84;4905556;29;20036;-94
2023/05/29 10:51:43;;;;;;;12.18;8.48;;;;;;;19.55;75.02;99195.31;4876427;29;20024;-95
2023/05/29 10:54:09;;;;;;;10.90;8.50;;;;;;;19.45;76.73;99184.78;4892350;29;20057;-96
2023/05/29 10:56:34;;;;;;;12.02;8.10;;;;;;;19.42;75.37;99175.31;4883997;29;20150;-96
2023/05/29 10:59:34;;;;;;;11.35;8.48;;;;;;;19.34;75.99;99174.25;4886795;29;20040;-96
2023/05/29 11:02:00;;;;;;;13.63;9.75;;;;;;;19.45;77.20;99184.78;4875774;29;20056;-96
2023/05/29 11:04:26;;;;;;;12.18;9.55;;;;;;;19.35;78.42;99173.09;4875590;29;20032;-95
2023/05/29 11:09:35;;;;;;;14.50;10.23;;;;;;;19.35;77.54;99178.56;5010240;23;20133;-95
2023/05/29 11:12:33;;;;;;;10.82;8.88;;;;;;;19.43;76.95;99170.66;4879693;29;20107;-94
2023/05/29 11:15:06;;;;;;;15.18;11.27;;;;;;;19.39;79.21;99174.03;4896303;29;20036;-95
2023/05/29 11:17:38;;;;;;;16.30;11.60;;;;;;;19.64;79.61;99195.25;4881730;29;20043;-96
2023/05/29 11:20:25;;;;;;;15.30;11.70;;;;;;;19.74;79.21;99187.47;4909195;29;20040;-95
2023/05/29 11:23:00;;;;;;;16.38;11.25;;;;;;;19.67;78.17;99186.38;4897170;29;20052;-96
2023/05/29 11:25:34;;;;;;;17.63;13.15;;;;;;;19.82;76.31;99194.00;4930034;29;20012;-96
2023/05/29 11:28:10;;;;;;;12.68;9.77;;;;;;;19.91;76.50;99188.47;4902763;29;20039;-96
2023/05/29 11:30:52;;;;;;;17.38;9.52;;;;;;;19.79;76.18;99175.53;4916426;29;20020;-96
2023/05/29 11:33:33;;;;;;;18.55;13.27;;;;;;;19.94;76.82;99188.59;4926183;29;20103;-96
2023/05/29 11:36:01;;;;;;;80.93;48.63;;;;;;;19.94;76.50;99182.31;4910020;29;20040;-96
2023/05/29 11:38:27;;;;;;;23.42;16.63;;;;;;;19.88;78.07;99176.28;4881110;29;20043;-96
2023/05/29 11:41:30;;;;;;;;;;;;;;;;;;;;;
2023/05/29 11:44:02;;;;;;;17.52;10.85;;;;;;;19.54;78.60;99178.09;4919024;29;20052;-96
2023/05/29 11:46:30;;;;;;;21.30;10.82;;;;;;;19.63;78.24;99169.06;4898665;29;20016;-95
2023/05/29 11:48:59;;;;;;;13.55;10.10;;;;;;;19.62;78.35;99172.94;4898761;29;20118;-94
2023/05/29 11:51:24;;;;;;;15.20;10.27;;;;;;;19.50;80.40;99177.19;4908576;29;20027;-94
2023/05/29 11:53:52;;;;;;;16.17;10.82;;;;;;;19.58;79.62;99180.97;4869812;29;20023;-93
2023/05/29 11:56:18;;;;;;;16.90;12.73;;;;;;;19.35;80.50;99183.25;4898752;29;20079;-94
2023/05/29 11:58:44;;;;;;;17.73;11.77;;;;;;;19.37;80.36;99184.50;4918088;29;20479;-94
2023/05/29 12:01:09;;;;;;;18.20;12.02;;;;;;;19.36;80.39;99191.09;4903311;29;20043;-93
2023/05/29 12:03:41;;;;;;;18.02;12.10;;;;;;;19.25;81.68;99178.16;4921296;29;20073;-92
2023/05/29 12:06:55;;;;;;;15.90;10.77;;;;;;;19.54;80.34;99204.63;4891932;29;20367;-96
2023/05/29 12:09:27;;;;;;;21.40;13.43;;;;;;;19.45;78.00;99188.31;4892245;29;20029;-94